createdAt,value
2022-09-12T00:01:34.364Z,46.07
2022-09-12T00:04:08.093Z,46.08
2022-09-12T00:06:41.329Z,46.15
2022-09-12T00:09:16.461Z,46.36
2022-09-12T00:11:50.082Z,46.63
2022-09-12T00:14:23.410Z,46.85
2022-09-12T00:17:00.383Z,47.27
2022-09-12T00:19:34.063Z,47.03
2022-09-12T00:22:08.317Z,47.05
2022-09-12T00:24:41.828Z,47.16
2022-09-12T00:27:15.279Z,47.13
2022-09-12T00:29:48.534Z,47.74
2022-09-12T00:32:22.168Z,47.73
2022-09-12T00:34:55.942Z,48.73
2022-09-12T00:37:29.728Z,48.30
2022-09-12T00:40:03.226Z,48.05
2022-09-12T00:42:36.961Z,48.45
2022-09-12T00:45:15.360Z,48.24
2022-09-12T00:47:49.068Z,48.19
2022-09-12T00:50:22.493Z,48.30
2022-09-12T00:52:58.877Z,48.32
2022-09-12T00:55:36.049Z,48.46
2022-09-12T00:58:12.393Z,48.52
2022-09-12T01:00:47.514Z,48.44
2022-09-12T01:03:23.388Z,48.45
2022-09-12T01:06:00.055Z,48.66
2022-09-12T01:08:34.630Z,48.92
2022-09-12T01:11:09.918Z,48.88
2022-09-12T01:13:43.728Z,48.88
2022-09-12T01:16:18.509Z,48.98
2022-09-12T01:18:59.293Z,49.20
2022-09-12T01:21:40.925Z,49.43
2022-09-12T01:24:46.062Z,49.95
2022-09-12T01:27:42.411Z,49.99
2022-09-12T01:30:44.401Z,49.96
2022-09-12T01:36:46.146Z,48.33
2022-09-12T01:39:29.270Z,49.79
2022-09-12T01:42:10.377Z,50.14
2022-09-12T01:44:48.186Z,50.21
2022-09-12T01:47:25.232Z,50.22
2022-09-12T01:50:02.240Z,50.10
2022-09-12T01:52:38.684Z,50.00
2022-09-12T01:55:16.264Z,49.94
2022-09-12T01:57:52.811Z,50.16
2022-09-12T02:00:26.614Z,50.05
2022-09-12T02:03:03.560Z,50.30
2022-09-12T02:05:38.909Z,50.57
2022-09-12T02:08:14.984Z,50.75
2022-09-12T02:10:51.004Z,51.02
2022-09-12T02:13:27.334Z,50.89
2022-09-12T02:16:04.198Z,50.99
2022-09-12T02:18:40.755Z,51.18
2022-09-12T02:21:15.322Z,52.68
2022-09-12T02:23:52.924Z,52.08
2022-09-12T02:26:29.513Z,51.39
2022-09-12T02:29:03.274Z,51.16
2022-09-12T02:31:40.843Z,51.00
2022-09-12T02:34:18.475Z,51.11
2022-09-12T02:36:55.717Z,51.05
2022-09-12T02:39:29.373Z,51.06
2022-09-12T02:42:05.005Z,51.21
2022-09-12T02:44:39.065Z,51.52
2022-09-12T02:47:15.350Z,51.72
2022-09-12T02:49:49.138Z,52.87
2022-09-12T02:52:23.303Z,52.84
2022-09-12T02:54:59.007Z,52.94
2022-09-12T02:57:33.839Z,53.05
2022-09-12T03:00:09.931Z,54.21
2022-09-12T03:02:51.762Z,55.99
2022-09-12T03:05:32.661Z,55.57
2022-09-12T03:08:16.521Z,54.19
2022-09-12T03:11:02.317Z,53.50
2022-09-12T03:13:39.590Z,53.61
2022-09-12T03:16:15.887Z,53.73
2022-09-12T03:18:54.440Z,54.59
2022-09-12T03:21:30.921Z,54.24
2022-09-12T03:24:13.686Z,54.85
2022-09-12T03:26:50.473Z,55.31
2022-09-12T03:29:26.005Z,56.45
2022-09-12T03:32:00.461Z,56.49
2022-09-12T03:34:33.926Z,56.51
2022-09-12T03:37:07.798Z,55.77
2022-09-12T03:39:41.066Z,54.71
2022-09-12T03:42:14.603Z,54.03
2022-09-12T03:44:48.067Z,53.79
2022-09-12T03:47:21.139Z,53.67
2022-09-12T03:49:55.020Z,53.67
2022-09-12T03:52:28.523Z,53.80
2022-09-12T03:55:02.188Z,53.66
2022-09-12T03:57:35.840Z,54.03
2022-09-12T04:00:14.420Z,53.83
2022-09-12T04:02:46.658Z,53.47
2022-09-12T04:05:20.443Z,53.83
2022-09-12T04:07:53.908Z,54.45
2022-09-12T04:10:28.531Z,55.96
2022-09-12T04:13:01.806Z,55.82
2022-09-12T04:15:35.139Z,55.59
2022-09-12T04:18:08.819Z,55.98
2022-09-12T04:20:42.903Z,57.85
2022-09-12T04:23:16.207Z,57.62
2022-09-12T04:25:57.603Z,56.61
2022-09-12T04:28:32.662Z,55.76
2022-09-12T04:31:11.292Z,55.08
2022-09-12T04:33:45.043Z,54.83
2022-09-12T04:36:19.921Z,54.23
2022-09-12T04:38:53.587Z,54.53
2022-09-12T04:41:31.443Z,54.52
2022-09-12T04:44:07.761Z,54.41
2022-09-12T04:46:44.665Z,54.19
2022-09-12T04:49:19.572Z,54.10
2022-09-12T04:51:55.364Z,53.93
2022-09-12T04:54:29.178Z,54.07
2022-09-12T04:57:03.159Z,54.33
2022-09-12T04:59:36.806Z,54.26
2022-09-12T05:02:10.291Z,54.27
2022-09-12T05:04:43.967Z,54.42
2022-09-12T05:07:17.809Z,54.34
2022-09-12T05:09:51.282Z,54.43
2022-09-12T05:12:24.572Z,54.77
2022-09-12T05:14:57.863Z,55.23
2022-09-12T05:17:32.814Z,56.01
2022-09-12T05:20:06.985Z,56.77
2022-09-12T05:22:40.549Z,57.26
2022-09-12T05:25:13.780Z,57.27
2022-09-12T05:27:50.449Z,56.67
2022-09-12T05:30:22.310Z,57.20
2022-09-12T05:32:56.360Z,57.11
2022-09-12T05:35:30.629Z,56.31
2022-09-12T05:38:04.169Z,56.00
2022-09-12T05:40:37.630Z,55.75
2022-09-12T05:43:12.569Z,55.58
2022-09-12T05:45:46.135Z,55.34
2022-09-12T05:48:19.712Z,55.34
2022-09-12T05:50:53.077Z,55.19
2022-09-12T05:53:28.301Z,55.00
2022-09-12T05:56:11.001Z,55.01
2022-09-12T05:58:46.261Z,54.86
2022-09-12T06:01:20.910Z,54.63
2022-09-12T06:03:56.201Z,54.73
2022-09-12T06:06:31.067Z,54.76
2022-09-12T06:09:06.508Z,54.63
2022-09-12T06:11:41.772Z,54.65
2022-09-12T06:14:18.116Z,54.65
2022-09-12T06:16:51.801Z,54.67
2022-09-12T06:19:28.164Z,54.38
2022-09-12T06:22:01.718Z,54.32
2022-09-12T06:24:35.320Z,54.32
2022-09-12T06:27:08.782Z,54.21
2022-09-12T06:29:42.247Z,54.08
2022-09-12T06:32:16.645Z,54.04
2022-09-12T06:34:51.036Z,54.11
2022-09-12T06:37:24.608Z,54.10
2022-09-12T06:39:58.660Z,54.39
2022-09-12T06:42:32.799Z,54.09
2022-09-12T06:45:06.608Z,54.00
2022-09-12T06:47:40.260Z,53.83
2022-09-12T06:50:14.159Z,53.63
2022-09-12T06:52:49.317Z,53.56
2022-09-12T06:55:27.627Z,53.75
2022-09-12T06:57:59.933Z,53.37
2022-09-12T07:00:33.575Z,53.37
2022-09-12T07:03:08.061Z,53.24
2022-09-12T07:05:41.918Z,53.02
2022-09-12T07:08:15.507Z,52.82
2022-09-12T07:10:49.120Z,52.64
2022-09-12T07:13:23.035Z,52.55
2022-09-12T07:15:56.810Z,52.53
2022-09-12T07:18:31.121Z,52.50
2022-09-12T07:21:05.515Z,52.50
2022-09-12T07:23:40.234Z,52.75
2022-09-12T07:26:14.967Z,52.90
2022-09-12T07:28:50.032Z,53.33
2022-09-12T07:31:24.920Z,53.60
2022-09-12T07:33:58.396Z,53.45
2022-09-12T07:36:32.147Z,53.19
2022-09-12T07:39:06.055Z,52.99
2022-09-12T07:41:39.766Z,52.98
2022-09-12T07:44:13.456Z,53.08
2022-09-12T07:46:46.936Z,53.31
2022-09-12T07:49:20.355Z,53.49
2022-09-12T07:51:54.000Z,53.54
2022-09-12T07:54:27.944Z,53.39
2022-09-12T07:57:01.473Z,53.64
2022-09-12T07:59:51.932Z,53.74
2022-09-12T08:02:16.127Z,54.37
2022-09-12T08:04:48.177Z,55.23
2022-09-12T08:07:21.623Z,55.14
2022-09-12T08:09:55.330Z,55.33
2022-09-12T08:12:30.202Z,55.10
2022-09-12T08:15:03.730Z,54.69
2022-09-12T08:17:37.578Z,54.77
2022-09-12T08:20:12.325Z,54.99
2022-09-12T08:22:46.062Z,55.19
2022-09-12T08:25:19.496Z,55.79
2022-09-12T08:27:53.264Z,55.91
2022-09-12T08:30:26.763Z,56.16
2022-09-12T08:33:00.437Z,56.38
2022-09-12T08:35:33.900Z,56.47
2022-09-12T08:38:07.559Z,56.51
2022-09-12T08:40:46.464Z,56.23
2022-09-12T08:43:25.795Z,56.77
2022-09-12T08:46:02.613Z,56.58
2022-09-12T08:48:37.176Z,56.32
2022-09-12T08:51:14.785Z,56.64
2022-09-12T08:53:50.208Z,56.54
2022-09-12T08:56:26.479Z,56.64
2022-09-12T08:58:59.581Z,57.26
2022-09-12T09:01:35.900Z,57.39
2022-09-12T09:04:20.616Z,57.48
2022-09-12T09:07:15.000Z,57.30
2022-09-12T09:09:56.602Z,57.73
2022-09-12T09:15:48.715Z,57.88
2022-09-12T09:18:25.365Z,57.73
2022-09-12T09:21:02.123Z,57.59
2022-09-12T09:23:38.081Z,57.34
2022-09-12T09:26:15.545Z,57.47
2022-09-12T09:28:51.672Z,57.44
2022-09-12T09:31:28.252Z,57.27
2022-09-12T09:34:02.088Z,56.92
2022-09-12T09:36:38.930Z,56.50
2022-09-12T09:39:16.495Z,56.00
2022-09-12T09:41:53.272Z,55.39
2022-09-12T09:44:28.539Z,54.94
2022-09-12T09:47:02.902Z,54.62
2022-09-12T09:49:37.660Z,54.22
2022-09-12T09:52:14.729Z,53.65
2022-09-12T09:54:51.057Z,53.21
2022-09-12T09:57:45.666Z,52.79
2022-09-12T10:03:36.151Z,51.89
2022-09-12T10:06:25.401Z,51.47
2022-09-12T10:09:10.641Z,51.18
2022-09-12T10:11:46.053Z,51.19
2022-09-12T10:17:34.448Z,51.04
2022-09-12T10:20:21.063Z,50.83
2022-09-12T10:22:48.399Z,50.77
2022-09-12T10:25:23.681Z,50.56
2022-09-12T10:28:00.198Z,50.12
2022-09-12T10:30:34.441Z,49.88
2022-09-12T10:33:10.544Z,49.85
2022-09-12T10:35:49.977Z,49.58
2022-09-12T10:38:28.343Z,49.64
2022-09-12T10:41:03.925Z,49.20
2022-09-12T10:43:40.854Z,48.73
2022-09-12T10:46:33.178Z,48.16
2022-09-12T10:49:25.982Z,47.36
2022-09-12T10:52:01.184Z,46.01
2022-09-12T10:54:34.718Z,46.47
2022-09-12T10:57:36.539Z,46.54
2022-09-12T11:00:17.004Z,46.81
2022-09-12T11:02:55.299Z,46.60
2022-09-12T11:05:55.081Z,46.45
2022-09-12T11:08:48.845Z,46.12
2022-09-12T11:11:34.964Z,45.50
2022-09-12T11:14:16.907Z,45.54
2022-09-12T11:16:54.498Z,45.23
2022-09-12T11:19:51.155Z,44.00
2022-09-12T11:22:34.372Z,43.78
2022-09-12T11:25:27.953Z,43.52
2022-09-12T11:28:20.325Z,43.87
2022-09-12T11:31:00.738Z,43.65
2022-09-12T11:33:43.221Z,43.41
2022-09-12T11:36:26.911Z,43.20
2022-09-12T11:39:05.479Z,42.42
2022-09-12T11:41:41.504Z,40.78
2022-09-12T11:44:21.088Z,42.32
2022-09-12T11:46:54.600Z,42.67
2022-09-12T11:49:35.593Z,42.90
2022-09-12T11:52:10.775Z,43.89
2022-09-12T11:54:52.771Z,44.60
2022-09-12T11:57:25.995Z,44.52
2022-09-12T12:00:02.688Z,43.71
2022-09-12T12:02:41.009Z,44.08
2022-09-12T12:05:22.398Z,43.72
2022-09-12T12:07:57.845Z,44.31
2022-09-12T12:10:36.205Z,44.55
2022-09-12T12:13:14.364Z,44.57
2022-09-12T12:15:51.633Z,44.21
2022-09-12T12:18:27.985Z,43.12
2022-09-12T12:21:18.509Z,43.24
2022-09-12T12:24:13.124Z,43.08
2022-09-12T12:26:59.336Z,42.48
2022-09-12T12:29:46.603Z,42.38
2022-09-12T12:32:27.925Z,41.88
2022-09-12T12:35:40.782Z,41.93
2022-09-12T12:38:32.051Z,41.95
2022-09-12T12:41:50.163Z,42.23
2022-09-12T12:44:51.629Z,42.39
2022-09-12T12:47:27.571Z,41.43
2022-09-12T12:50:03.843Z,41.67
2022-09-12T12:52:44.327Z,42.17
2022-09-12T12:55:20.649Z,42.16
2022-09-12T12:57:55.458Z,42.08
2022-09-12T13:00:35.627Z,42.25
2022-09-12T13:05:57.688Z,41.59
2022-09-12T13:08:33.452Z,41.30
2022-09-12T13:11:10.346Z,37.18
2022-09-12T13:13:46.712Z,36.42
2022-09-12T13:16:34.873Z,35.28
2022-09-12T13:19:14.868Z,35.06
2022-09-12T13:21:59.105Z,36.55
2022-09-12T13:24:33.108Z,37.60
2022-09-12T13:27:17.319Z,38.01
2022-09-12T13:29:51.079Z,38.15
2022-09-12T13:32:25.136Z,38.30
2022-09-12T13:35:05.216Z,38.23
2022-09-12T13:37:51.343Z,38.37
2022-09-12T13:40:33.903Z,39.02
2022-09-12T13:43:17.078Z,39.01
2022-09-12T13:45:50.812Z,38.46
2022-09-12T13:51:08.442Z,39.85
2022-09-12T13:53:44.495Z,40.14
2022-09-12T13:56:21.015Z,40.79
2022-09-12T13:58:59.138Z,40.80
2022-09-12T14:01:42.494Z,39.76
2022-09-12T14:04:37.163Z,37.09
2022-09-12T14:07:17.446Z,36.40
2022-09-12T14:09:56.551Z,35.17
2022-09-12T14:12:32.551Z,37.96
2022-09-12T14:15:08.600Z,40.10
2022-09-12T14:17:45.880Z,41.93
2022-09-12T14:20:20.826Z,42.22
2022-09-12T14:22:55.135Z,42.14
2022-09-12T14:25:30.225Z,42.20
2022-09-12T14:28:06.262Z,42.45
2022-09-12T14:30:40.225Z,42.67
2022-09-12T14:33:23.553Z,42.90
2022-09-12T14:36:10.950Z,43.06
2022-09-12T14:38:47.487Z,43.19
2022-09-12T14:41:28.197Z,43.66
2022-09-12T14:44:03.849Z,43.97
2022-09-12T14:46:39.719Z,44.32
2022-09-12T14:49:17.196Z,44.99
2022-09-12T14:51:59.372Z,45.54
2022-09-12T14:54:42.604Z,45.38
2022-09-12T14:57:36.557Z,45.24
2022-09-12T15:00:23.154Z,45.26
2022-09-12T15:02:57.099Z,45.73
2022-09-12T15:05:31.096Z,46.13
2022-09-12T15:08:04.684Z,46.45
2022-09-12T15:10:39.993Z,46.54
2022-09-12T15:13:16.833Z,46.55
2022-09-12T15:15:52.268Z,46.55
2022-09-12T15:18:27.601Z,46.48
2022-09-12T15:21:04.196Z,46.69
2022-09-12T15:23:40.957Z,46.76
2022-09-12T15:26:16.053Z,46.94
2022-09-12T15:28:49.738Z,47.13
2022-09-12T15:31:27.158Z,47.31
2022-09-12T15:34:02.531Z,47.35
2022-09-12T15:36:36.112Z,47.31
2022-09-12T15:39:10.355Z,47.29
2022-09-12T15:41:44.085Z,47.46
2022-09-12T15:44:17.865Z,47.57
2022-09-12T15:46:51.111Z,47.59
2022-09-12T15:49:24.700Z,47.64
2022-09-12T15:51:58.439Z,47.84
2022-09-12T15:54:33.321Z,47.87
2022-09-12T15:57:07.529Z,48.09
2022-09-12T15:59:41.572Z,48.17
2022-09-12T16:02:16.778Z,48.25
2022-09-12T16:04:52.186Z,48.20
2022-09-12T16:07:25.858Z,48.34
2022-09-12T16:09:59.208Z,48.55
2022-09-12T16:12:32.832Z,48.59
2022-09-12T16:15:07.640Z,48.78
2022-09-12T16:17:41.139Z,49.36
2022-09-12T16:20:15.102Z,49.39
2022-09-12T16:22:48.901Z,49.45
2022-09-12T16:25:22.433Z,49.42
2022-09-12T16:27:55.951Z,49.37
2022-09-12T16:30:29.700Z,49.47
2022-09-12T16:33:03.667Z,49.41
2022-09-12T16:35:37.214Z,49.48
2022-09-12T16:38:10.597Z,49.50
2022-09-12T16:40:44.101Z,49.56
2022-09-12T16:43:17.887Z,49.69
2022-09-12T16:45:51.728Z,49.76
2022-09-12T16:48:25.631Z,49.79
2022-09-12T16:51:04.044Z,49.93
2022-09-12T16:53:39.316Z,49.89
2022-09-12T16:56:13.185Z,50.07
2022-09-12T16:58:47.233Z,50.05
2022-09-12T17:01:22.578Z,50.07
2022-09-12T17:03:57.630Z,50.07
2022-09-12T17:06:32.654Z,50.00
2022-09-12T17:09:06.675Z,50.20
2022-09-12T17:11:41.869Z,50.13
2022-09-12T17:14:15.761Z,50.15
2022-09-12T17:16:51.894Z,50.34
2022-09-12T17:19:26.820Z,50.48
2022-09-12T17:22:00.374Z,50.61
2022-09-12T17:24:34.214Z,50.81
2022-09-12T17:27:08.044Z,50.87
2022-09-12T17:29:41.949Z,50.67
2022-09-12T17:32:17.669Z,51.07
2022-09-12T17:34:50.924Z,50.99
2022-09-12T17:37:24.712Z,50.93
2022-09-12T17:39:58.208Z,50.83
2022-09-12T17:42:31.956Z,50.88
2022-09-12T17:45:06.581Z,51.01
2022-09-12T17:47:40.114Z,50.72
2022-09-12T17:50:30.700Z,50.70
2022-09-12T17:52:49.248Z,50.91
2022-09-12T17:55:22.726Z,51.10
2022-09-12T17:57:56.447Z,51.29
2022-09-12T18:00:49.259Z,51.44
2022-09-12T18:03:24.378Z,51.48
2022-09-12T18:05:58.969Z,51.58
2022-09-12T18:08:32.365Z,51.49
2022-09-12T18:11:07.995Z,51.42
2022-09-12T18:13:41.538Z,51.34
2022-09-12T18:16:16.082Z,51.18
2022-09-12T18:18:51.095Z,51.09
2022-09-12T18:21:24.927Z,51.03
2022-09-12T18:24:00.207Z,50.94
2022-09-12T18:26:34.659Z,50.79
2022-09-12T18:29:09.164Z,50.64
2022-09-12T18:31:43.008Z,50.49
2022-09-12T18:34:17.086Z,50.36
2022-09-12T18:36:55.022Z,50.42
2022-09-12T18:39:28.020Z,50.48
2022-09-12T18:42:01.318Z,50.38
2022-09-12T18:44:35.443Z,50.51
2022-09-12T18:47:09.644Z,50.67
2022-09-12T18:49:42.938Z,50.58
2022-09-12T18:52:18.907Z,50.63
2022-09-12T18:54:51.949Z,50.61
2022-09-12T18:57:26.911Z,50.60
2022-09-12T19:00:00.442Z,50.50
2022-09-12T19:02:35.437Z,50.41
2022-09-12T19:05:09.849Z,50.35
2022-09-12T19:07:43.402Z,50.36
2022-09-12T19:10:17.547Z,50.41
2022-09-12T19:12:51.031Z,50.40
2022-09-12T19:15:25.095Z,50.44
2022-09-12T19:17:58.619Z,50.37
2022-09-12T19:20:32.907Z,50.34
2022-09-12T19:23:06.627Z,50.32
2022-09-12T19:25:41.059Z,50.30
2022-09-12T19:28:16.090Z,50.28
2022-09-12T19:30:51.502Z,50.38
2022-09-12T19:33:27.081Z,50.42
2022-09-12T19:36:10.677Z,50.47
2022-09-12T19:38:41.306Z,50.52
2022-09-12T19:41:17.005Z,50.70
2022-09-12T19:43:50.802Z,50.70
2022-09-12T19:46:27.794Z,50.70
2022-09-12T19:49:01.513Z,50.83
2022-09-12T19:51:35.409Z,50.85
2022-09-12T19:54:09.271Z,50.94
2022-09-12T19:56:43.232Z,50.96
2022-09-12T19:59:17.863Z,51.05
2022-09-12T20:01:51.521Z,51.09
2022-09-12T20:04:25.563Z,51.06
2022-09-12T20:06:59.217Z,51.30
2022-09-12T20:09:32.877Z,51.40
2022-09-12T20:12:07.459Z,51.41
2022-09-12T20:14:42.507Z,51.50
2022-09-12T20:17:16.143Z,51.72
2022-09-12T20:19:50.595Z,51.82
2022-09-12T20:22:24.343Z,51.83
2022-09-12T20:24:58.749Z,51.80
2022-09-12T20:27:32.725Z,51.80
2022-09-12T20:30:07.773Z,51.78
2022-09-12T20:32:42.768Z,51.74
2022-09-12T20:35:16.563Z,51.62
2022-09-12T20:37:50.710Z,51.67
2022-09-12T20:40:24.735Z,51.56
2022-09-12T20:43:01.475Z,51.49
2022-09-12T20:45:44.034Z,51.43
2022-09-12T20:48:17.699Z,51.38
2022-09-12T20:50:52.635Z,51.46
2022-09-12T20:53:26.194Z,51.57
2022-09-12T20:55:59.771Z,51.65
2022-09-12T20:58:33.565Z,51.72
2022-09-12T21:01:12.503Z,51.78
2022-09-12T21:03:47.136Z,51.88
2022-09-12T21:06:21.418Z,52.02
2022-09-12T21:08:54.941Z,52.15
2022-09-12T21:11:29.151Z,52.21
2022-09-12T21:14:02.439Z,52.27
2022-09-12T21:16:37.953Z,52.23
2022-09-12T21:19:11.801Z,52.52
2022-09-12T21:21:45.793Z,52.73
2022-09-12T21:24:19.750Z,52.76
2022-09-12T21:26:53.522Z,52.72
2022-09-12T21:29:27.228Z,52.64
2022-09-12T21:32:01.014Z,52.63
2022-09-12T21:34:34.546Z,52.61
2022-09-12T21:37:08.073Z,52.70
2022-09-12T21:39:42.844Z,52.73
2022-09-12T21:42:16.605Z,52.84
2022-09-12T21:44:50.557Z,52.88
2022-09-12T21:47:23.721Z,52.98
2022-09-12T21:49:58.496Z,53.14
2022-09-12T21:52:32.042Z,53.06
2022-09-12T21:55:06.607Z,52.92
2022-09-12T21:57:40.207Z,52.83
2022-09-12T22:00:16.586Z,52.78
2022-09-12T22:02:51.404Z,52.78
2022-09-12T22:05:24.829Z,52.76
2022-09-12T22:07:58.968Z,52.74
2022-09-12T22:10:32.473Z,52.73
2022-09-12T22:13:06.457Z,52.75
2022-09-12T22:15:41.242Z,52.85
2022-09-12T22:18:15.296Z,52.87
2022-09-12T22:20:48.436Z,52.92
2022-09-12T22:23:39.730Z,53.07
2022-09-12T22:26:13.826Z,53.24
2022-09-12T22:28:48.286Z,53.23
2022-09-12T22:31:22.553Z,53.28
2022-09-12T22:33:58.725Z,53.28
2022-09-12T22:36:35.878Z,53.37
2022-09-12T22:39:08.239Z,53.40
2022-09-12T22:41:41.932Z,53.56
2022-09-12T22:44:17.900Z,53.56
2022-09-12T22:46:52.159Z,53.76
2022-09-12T22:49:25.738Z,53.82
2022-09-12T22:51:59.377Z,53.91
2022-09-12T22:54:32.796Z,53.97
2022-09-12T22:57:06.732Z,53.92
2022-09-12T22:59:40.216Z,53.97
2022-09-12T23:02:13.624Z,53.93
2022-09-12T23:04:47.844Z,54.11
2022-09-12T23:07:21.358Z,54.09
2022-09-12T23:09:54.846Z,54.16
2022-09-12T23:12:28.372Z,54.29
2022-09-12T23:15:01.977Z,54.32
2022-09-12T23:17:35.441Z,54.34
2022-09-12T23:20:10.649Z,54.31
2022-09-12T23:22:44.430Z,54.36
2022-09-12T23:25:17.876Z,54.39
2022-09-12T23:27:51.853Z,54.58
2022-09-12T23:30:25.488Z,54.53
2022-09-12T23:32:58.693Z,54.50
2022-09-12T23:35:32.348Z,54.60
2022-09-12T23:38:06.497Z,54.64
2022-09-12T23:40:40.473Z,54.71
2022-09-12T23:43:14.373Z,54.69
2022-09-12T23:45:48.083Z,54.99
2022-09-12T23:48:21.590Z,55.00
2022-09-12T23:50:57.739Z,55.23
2022-09-12T23:53:31.413Z,55.17
2022-09-12T23:56:06.599Z,55.18
2022-09-12T23:58:39.977Z,55.43
